Time;durP1;ratioP1;P1;durP2;ratioP2;P2;SDS_P1;SDS_P2;PMS_P1;PMS_P2;Temp;Humidity;BMP_temperature;BMP_pressure;BME280_temperature;BME280_humidity;BME280_pressure;Samples;Min_cycle;Max_cycle;Signal;HPM_P1;HPM_P2
2023/07/11 00:00:14;;;;;;;3.55;1.10;;;18.40;99.90;;;;;;5025143;28;20049;-87
2023/07/11 00:02:44;;;;;;;3.28;0.80;;;18.00;99.90;;;;;;5024120;28;20094;-88
2023/07/11 00:05:12;;;;;;;3.72;1.17;;;18.00;99.90;;;;;;5027561;28;20049;-90
2023/07/11 00:07:38;;;;;;;1.63;0.77;;;17.90;99.90;;;;;;5022475;28;20563;-87
2023/07/11 00:10:04;;;;;;;3.17;0.80;;;18.00;99.90;;;;;;5025022;28;20065;-86
2023/07/11 00:12:30;;;;;;;2.80;1.08;;;17.90;99.90;;;;;;5008195;28;20529;-86
2023/07/11 00:14:56;;;;;;;2.08;0.80;;;17.90;99.90;;;;;;5019650;28;20053;-88
2023/07/11 00:17:22;;;;;;;2.15;1.00;;;17.80;99.90;;;;;;5020423;28;20490;-87
2023/07/11 00:19:57;;;;;;;5.03;0.90;;;18.10;99.90;;;;;;5020006;28;20124;-88
2023/07/11 00:22:26;;;;;;;4.95;0.57;;;17.80;99.90;;;;;;5029788;28;20041;-87
2023/07/11 00:24:51;;;;;;;1.88;0.57;;;17.80;99.90;;;;;;5030708;28;20048;-88
2023/07/11 00:27:19;;;;;;;2.65;0.80;;;17.80;99.90;;;;;;5007744;28;20037;-82
2023/07/11 00:29:45;;;;;;;2.88;0.88;;;17.80;99.90;;;;;;5022329;28;20044;-88
2023/07/11 00:32:12;;;;;;;2.47;0.57;;;17.80;99.90;;;;;;5021104;28;20049;-89
2023/07/11 00:34:38;;;;;;;3.70;0.95;;;17.80;99.90;;;;;;5023757;28;20121;-87
2023/07/11 00:37:04;;;;;;;4.70;0.85;;;17.80;99.90;;;;;;5007016;28;20136;-85
2023/07/11 00:39:31;;;;;;;5.63;0.80;;;17.80;99.90;;;;;;5024970;28;20390;-88
2023/07/11 00:41:58;;;;;;;2.40;1.05;;;17.80;99.90;;;;;;5023303;28;20064;-86
2023/07/11 00:44:24;;;;;;;2.55;0.60;;;17.80;99.90;;;;;;5006487;28;20068;-88
2023/07/11 00:46:51;;;;;;;5.55;1.10;;;17.80;99.90;;;;;;5024710;28;20057;-87
2023/07/11 00:49:19;;;;;;;6.18;1.15;;;17.80;99.90;;;;;;5023820;28;20045;-86
2023/07/11 00:51:50;;;;;;;6.47;1.50;;;17.80;99.90;;;;;;5024331;28;20457;-86
2023/07/11 00:54:21;;;;;;;4.45;1.00;;;17.80;99.90;;;;;;5022947;28;20513;-84
2023/07/11 00:56:48;;;;;;;4.50;0.85;;;17.80;99.90;;;;;;5023511;28;20502;-88
2023/07/11 00:59:17;;;;;;;3.33;1.00;;;17.80;99.90;;;;;;5009820;28;20034;-90
2023/07/11 01:01:50;;;;;;;4.03;0.88;;;17.70;99.90;;;;;;5025327;28;20393;-87
2023/07/11 01:04:19;;;;;;;4.45;1.02;;;17.70;99.90;;;;;;5004677;28;20080;-87
2023/07/11 01:06:45;;;;;;;2.03;0.90;;;17.70;99.90;;;;;;5026216;28;20552;-86
2023/07/11 01:09:12;;;;;;;2.38;1.00;;;17.70;99.90;;;;;;5030106;28;20041;-83
2023/07/11 01:12:12;;;;;;;2.00;0.77;;;17.50;99.90;;;;;;5030459;28;20051;-85
2023/07/11 01:14:40;;;;;;;3.50;1.30;;;17.70;99.90;;;;;;4981191;28;20110;-85
2023/07/11 01:17:28;;;;;;;6.18;1.00;;;18.00;99.90;;;;;;5024861;28;20136;-87
2023/07/11 01:19:54;;;;;;;4.18;0.80;;;18.50;99.90;;;;;;5020179;28;20494;-88
2023/07/11 01:22:20;;;;;;;3.28;1.13;;;17.70;99.90;;;;;;5023880;28;20477;-86
2023/07/11 01:24:46;;;;;;;1.77;0.60;;;17.70;99.90;;;;;;5022238;28;20042;-84
2023/07/11 01:27:13;;;;;;;4.35;1.42;;;18.40;99.90;;;;;;5026478;28;20033;-83
2023/07/11 01:29:41;;;;;;;4.85;1.33;;;17.70;99.90;;;;;;5026249;28;20034;-85
2023/07/11 01:32:07;;;;;;;4.30;1.05;;;17.80;99.90;;;;;;5023210;28;20402;-86
2023/07/11 01:34:33;;;;;;;3.65;1.02;;;17.80;99.90;;;;;;5023504;28;20120;-86
2023/07/11 01:36:59;;;;;;;5.03;0.93;;;17.80;99.90;;;;;;5023798;28;20128;-84
2023/07/11 01:39:25;;;;;;;3.70;1.08;;;17.80;99.90;;;;;;5019646;28;20051;-85
2023/07/11 01:41:50;;;;;;;2.40;0.50;;;17.80;99.90;;;;;;5022541;28;20041;-87
2023/07/11 01:44:16;;;;;;;1.98;0.85;;;17.80;99.90;;;;;;5022664;28;20057;-87
2023/07/11 01:46:42;;;;;;;3.33;1.30;;;17.90;99.90;;;;;;5022560;28;20041;-87
2023/07/11 01:49:07;;;;;;;3.65;0.75;;;18.20;99.90;;;;;;5023980;28;20553;-86
2023/07/11 01:51:33;;;;;;;3.20;1.25;;;17.90;99.90;;;;;;5024124;28;20473;-88
2023/07/11 01:53:58;;;;;;;1.33;0.70;;;17.90;99.90;;;;;;5021457;28;20049;-85
2023/07/11 01:56:24;;;;;;;3.08;0.55;;;18.00;99.90;;;;;;5021180;28;20491;-81
2023/07/11 01:58:50;;;;;;;1.42;0.65;;;17.90;99.90;;;;;;5028208;28;20033;-87
2023/07/11 02:01:15;;;;;;;5.03;1.15;;;17.90;99.90;;;;;;5031799;28;20057;-84
2023/07/11 02:03:41;;;;;;;2.40;0.65;;;17.90;99.90;;;;;;5027615;28;20477;-82
2023/07/11 02:06:07;;;;;;;1.88;0.75;;;17.90;99.90;;;;;;5029692;28;20103;-82
2023/07/11 02:08:33;;;;;;;4.85;0.90;;;17.90;99.90;;;;;;5010267;28;20397;-85
2023/07/11 02:10:58;;;;;;;6.43;0.80;;;17.80;99.90;;;;;;5027016;28;20084;-84
2023/07/11 02:13:24;;;;;;;2.67;0.90;;;17.80;99.90;;;;;;5028579;28;20102;-85
2023/07/11 02:15:50;;;;;;;2.80;0.60;;;17.80;99.90;;;;;;5027762;28;20370;-85
2023/07/11 02:18:15;;;;;;;2.97;0.95;;;17.70;99.90;;;;;;5003368;28;20048;-85
2023/07/11 02:20:43;;;;;;;3.45;0.90;;;17.80;99.90;;;;;;5028456;28;20099;-83
2023/07/11 02:23:11;;;;;;;1.90;0.65;;;17.70;99.90;;;;;;5029507;28;20045;-82
2023/07/11 02:25:37;;;;;;;3.60;0.90;;;17.50;99.90;;;;;;5025203;28;20099;-86
2023/07/11 02:28:03;;;;;;;2.80;0.70;;;17.70;99.90;;;;;;5028237;28;20038;-84
2023/07/11 02:30:29;;;;;;;4.85;1.15;;;17.60;99.90;;;;;;5027814;28;20045;-83
2023/07/11 02:32:55;;;;;;;2.97;0.90;;;17.60;99.90;;;;;;5026053;28;20434;-81
2023/07/11 02:35:20;;;;;;;4.10;0.98;;;17.60;99.90;;;;;;5025238;28;20398;-85
2023/07/11 02:37:46;;;;;;;9.00;1.30;;;17.60;99.90;;;;;;5027420;28;20112;-81
2023/07/11 02:40:12;;;;;;;3.53;0.73;;;17.60;99.90;;;;;;5028385;28;20101;-81
2023/07/11 02:42:37;;;;;;;5.72;0.95;;;17.50;99.90;;;;;;5024477;28;20041;-86
2023/07/11 02:45:03;;;;;;;2.10;0.70;;;17.50;99.90;;;;;;5028499;28;20045;-82
2023/07/11 02:47:29;;;;;;;3.97;1.17;;;17.50;99.90;;;;;;5024568;28;20478;-81
2023/07/11 02:49:54;;;;;;;6.30;1.30;;;17.50;99.90;;;;;;5025801;28;20052;-81
2023/07/11 02:52:20;;;;;;;3.47;1.15;;;17.50;99.90;;;;;;5025380;28;20092;-85
2023/07/11 02:54:47;;;;;;;2.70;0.88;;;17.50;99.90;;;;;;5028604;28;20060;-83
2023/07/11 02:57:13;;;;;;;8.93;1.20;;;17.50;99.90;;;;;;5026733;28;20041;-84
2023/07/11 02:59:38;;;;;;;3.70;1.08;;;17.90;99.90;;;;;;5027717;28;20045;-84
2023/07/11 03:02:05;;;;;;;4.95;1.10;;;17.50;99.90;;;;;;5027569;28;20037;-80
2023/07/11 03:04:31;;;;;;;4.45;1.23;;;17.40;99.90;;;;;;5024770;28;20769;-85
2023/07/11 03:06:57;;;;;;;3.40;0.70;;;17.40;99.90;;;;;;5003519;28;20073;-85
2023/07/11 03:09:24;;;;;;;6.20;1.00;;;17.40;99.90;;;;;;5020088;28;20073;-87
2023/07/11 03:11:51;;;;;;;2.22;1.10;;;17.50;99.90;;;;;;5020619;28;20045;-82
2023/07/11 03:14:18;;;;;;;2.65;1.00;;;17.50;99.90;;;;;;5019864;28;20477;-83
2023/07/11 03:16:44;;;;;;;6.30;1.20;;;17.50;99.90;;;;;;5020021;28;20041;-82
2023/07/11 03:19:10;;;;;;;5.40;1.40;;;17.40;99.90;;;;;;5022011;28;20045;-82
2023/07/11 03:21:35;;;;;;;3.67;0.93;;;18.20;99.90;;;;;;5020880;28;20447;-84
2023/07/11 03:24:01;;;;;;;5.15;1.38;;;17.50;99.90;;;;;;5022535;28;20099;-86
2023/07/11 03:26:27;;;;;;;2.22;0.95;;;17.40;99.90;;;;;;5023207;28;20041;-84
2023/07/11 03:28:53;;;;;;;2.30;0.98;;;17.50;99.90;;;;;;5020753;28;20095;-88
2023/07/11 03:31:18;;;;;;;15.30;1.20;;;17.50;99.90;;;;;;5021206;28;20469;-84
2023/07/11 03:33:46;;;;;;;2.92;1.67;;;17.50;99.90;;;;;;5029638;28;20033;-87
2023/07/11 03:36:12;;;;;;;5.50;1.98;;;17.50;99.90;;;;;;5025659;28;20038;-84
2023/07/11 03:38:39;;;;;;;6.90;1.48;;;17.50;99.90;;;;;;5018062;28;20033;-86
2023/07/11 03:41:04;;;;;;;2.47;1.45;;;17.40;99.90;;;;;;5035967;28;20129;-86
2023/07/11 03:43:30;;;;;;;4.45;1.73;;;17.50;99.90;;;;;;5027714;28;20105;-84
2023/07/11 03:45:56;;;;;;;5.15;1.15;;;17.30;99.90;;;;;;5026832;28;20519;-87
2023/07/11 03:48:21;;;;;;;5.55;1.58;;;17.30;99.90;;;;;;5026829;28;20042;-87
2023/07/11 03:50:47;;;;;;;3.03;1.40;;;17.30;99.90;;;;;;5028107;28;20699;-88
2023/07/11 03:53:25;;;;;;;4.50;1.40;;;17.30;99.90;;;;;;5032432;28;20096;-83
2023/07/11 03:55:57;;;;;;;4.60;1.73;;;17.30;99.90;;;;;;5039359;28;20045;-83
2023/07/11 03:58:26;;;;;;;4.07;1.17;;;17.30;99.90;;;;;;5009339;28;20100;-85
2023/07/11 04:01:01;;;;;;;4.25;1.67;;;17.40;99.90;;;;;;5037081;28;20057;-86
2023/07/11 04:03:30;;;;;;;4.93;1.50;;;17.40;99.90;;;;;;5035194;28;20045;-83
2023/07/11 04:05:56;;;;;;;6.18;2.10;;;17.40;99.90;;;;;;5024959;28;20059;-88
2023/07/11 04:08:22;;;;;;;2.05;1.27;;;17.40;99.90;;;;;;5027023;28;20057;-90
2023/07/11 04:10:48;;;;;;;6.45;1.58;;;17.40;99.90;;;;;;5026642;28;20358;-82
2023/07/11 04:13:13;;;;;;;3.75;1.58;;;17.40;99.90;;;;;;5028722;28;20060;-86
2023/07/11 04:15:39;;;;;;;4.10;1.30;;;17.40;99.90;;;;;;5014294;28;20033;-87
2023/07/11 04:18:04;;;;;;;3.67;1.60;;;17.40;99.90;;;;;;5023930;28;20046;-83
2023/07/11 04:20:30;;;;;;;3.78;2.03;;;17.50;99.90;;;;;;5028336;28;20058;-82
2023/07/11 04:22:56;;;;;;;3.88;1.73;;;17.50;99.90;;;;;;5030306;28;20053;-84
2023/07/11 04:25:21;;;;;;;2.50;1.55;;;17.50;99.90;;;;;;5031349;28;20060;-88
2023/07/11 04:27:47;;;;;;;6.00;1.92;;;17.50;99.90;;;;;;5024160;28;20468;-85
2023/07/11 04:30:13;;;;;;;5.13;1.50;;;17.50;99.90;;;;;;5012868;28;20076;-83
2023/07/11 04:32:39;;;;;;;6.00;1.55;;;17.50;99.90;;;;;;5031914;28;20041;-87
2023/07/11 04:35:10;;;;;;;4.13;1.85;;;17.40;99.90;;;;;;5030460;28;20519;-84
2023/07/11 04:37:36;;;;;;;3.90;1.65;;;17.50;99.90;;;;;;5030306;28;20482;-86
2023/07/11 04:40:02;;;;;;;6.47;1.67;;;17.50;99.90;;;;;;5026339;28;20046;-86
2023/07/11 04:42:27;;;;;;;6.15;2.28;;;17.50;99.90;;;;;;5021057;28;20079;-83
2023/07/11 04:44:54;;;;;;;5.85;1.95;;;17.50;99.90;;;;;;5022988;28;20037;-83
2023/07/11 04:47:19;;;;;;;7.72;2.35;;;17.50;99.90;;;;;;5024419;28;20049;-84
2023/07/11 04:49:45;;;;;;;5.60;1.90;;;17.50;99.90;;;;;;5022956;28;20368;-85
2023/07/11 04:52:11;;;;;;;8.27;1.77;;;17.50;99.90;;;;;;5024072;28;20044;-83
2023/07/11 04:54:36;;;;;;;5.47;1.90;;;17.50;99.90;;;;;;5006774;28;20555;-83
2023/07/11 04:57:02;;;;;;;7.95;2.83;;;17.60;99.90;;;;;;5023761;28;20057;-84
2023/07/11 04:59:28;;;;;;;3.72;2.13;;;17.50;99.90;;;;;;5022361;28;20087;-88
2023/07/11 05:01:54;;;;;;;6.70;1.92;;;17.50;99.90;;;;;;5025078;28;20486;-83
2023/07/11 05:04:19;;;;;;;5.53;1.98;;;17.50;99.90;;;;;;5024107;28;20045;-85
2023/07/11 05:06:47;;;;;;;9.60;4.20;;;17.50;99.90;;;;;;5023164;28;20038;-86
2023/07/11 05:09:15;;;;;;;10.13;2.65;;;17.50;99.90;;;;;;5028403;28;20083;-85
2023/07/11 05:11:46;;;;;;;5.45;2.53;;;17.60;99.90;;;;;;5031205;28;20037;-83
2023/07/11 05:14:12;;;;;;;10.80;3.05;;;17.60;99.90;;;;;;5036913;28;20396;-82
2023/07/11 05:16:38;;;;;;;6.03;2.83;;;17.60;99.90;;;;;;5046002;28;20068;-81
2023/07/11 05:19:14;;;;;;;9.80;3.28;;;17.70;99.90;;;;;;5042791;28;20037;-88
2023/07/11 05:21:40;;;;;;;6.13;3.00;;;17.70;99.90;;;;;;5019150;28;20057;-83
2023/07/11 05:24:06;;;;;;;7.90;3.47;;;17.80;99.90;;;;;;5028410;28;20512;-79
2023/07/11 05:26:33;;;;;;;9.30;3.47;;;17.80;99.90;;;;;;5027036;28;20055;-81
2023/07/11 05:28:58;;;;;;;8.13;3.33;;;17.90;99.90;;;;;;5026486;28;20521;-86
2023/07/11 05:31:24;;;;;;;10.70;4.03;;;17.90;99.90;;;;;;5023518;28;20069;-78
2023/07/11 05:33:54;;;;;;;5.68;3.55;;;18.00;99.90;;;;;;5010594;28;20049;-81
2023/07/11 05:36:33;;;;;;;6.65;3.30;;;18.00;99.90;;;;;;5029617;28;20098;-84
2023/07/11 05:39:11;;;;;;;7.90;2.78;;;18.10;99.90;;;;;;5023701;28;20041;-80
2023/07/11 05:41:41;;;;;;;8.38;3.72;;;18.10;99.90;;;;;;5031466;28;20085;-83
2023/07/11 05:44:08;;;;;;;8.00;3.97;;;18.20;99.90;;;;;;4993750;28;20390;-81
2023/07/11 05:46:34;;;;;;;7.57;3.80;;;18.20;99.90;;;;;;5025545;28;20049;-85
2023/07/11 05:48:59;;;;;;;7.35;3.30;;;18.30;99.90;;;;;;5008940;28;20500;-76
2023/07/11 05:51:25;;;;;;;5.95;3.30;;;18.30;99.90;;;;;;5018646;28;20056;-77
2023/07/11 05:53:51;;;;;;;9.45;4.25;;;18.30;99.90;;;;;;4655046;28;9999887;-79
2023/07/11 05:56:18;;;;;;;7.75;3.88;;;18.40;99.90;;;;;;5027043;28;20061;-78
2023/07/11 05:58:45;;;;;;;11.23;3.95;;;18.40;99.90;;;;;;5024027;28;20520;-83
2023/07/11 06:01:12;;;;;;;9.93;4.30;;;18.50;99.90;;;;;;5021230;28;20497;-78
2023/07/11 06:03:40;;;;;;;9.90;3.88;;;18.50;99.90;;;;;;5024575;28;20050;-76
2023/07/11 06:06:08;;;;;;;9.63;3.80;;;18.60;99.90;;;;;;5021997;28;20041;-77
2023/07/11 06:08:34;;;;;;;10.30;4.13;;;18.60;99.90;;;;;;5026469;28;20038;-80
2023/07/11 06:11:02;;;;;;;7.18;3.67;;;18.60;99.90;;;;;;5027519;28;20042;-78
2023/07/11 06:13:30;;;;;;;9.98;4.07;;;18.60;99.90;;;;;;5018566;28;20120;-83
2023/07/11 06:16:08;;;;;;;12.25;3.75;;;18.80;99.90;;;;;;5017452;28;20037;-77
2023/07/11 06:18:35;;;;;;;6.00;4.10;;;18.80;99.90;;;;;;5027094;28;20048;-78
2023/07/11 06:21:01;;;;;;;6.90;3.63;;;18.80;99.90;;;;;;5022663;28;20091;-83
2023/07/11 06:23:27;;;;;;;9.85;4.30;;;18.90;99.90;;;;;;4993323;28;20069;-78
2023/07/11 06:25:53;;;;;;;7.38;3.88;;;18.90;99.90;;;;;;5027434;28;20046;-80
2023/07/11 06:28:18;;;;;;;9.15;4.30;;;19.00;99.90;;;;;;5026852;28;20033;-78
2023/07/11 06:30:44;;;;;;;10.63;4.72;;;19.10;99.90;;;;;;5022301;28;20081;-81
2023/07/11 06:33:11;;;;;;;9.10;4.88;;;19.10;99.90;;;;;;5027104;28;20046;-79
2023/07/11 06:35:41;;;;;;;5.18;3.45;;;19.20;99.90;;;;;;5004999;28;20069;-84
2023/07/11 06:38:08;;;;;;;6.68;3.53;;;20.10;99.90;;;;;;5030586;28;20052;-87
2023/07/11 06:40:34;;;;;;;11.48;4.13;;;19.30;99.90;;;;;;5027938;28;20103;-81
2023/07/11 06:42:59;;;;;;;8.60;3.55;;;19.30;99.90;;;;;;5031506;28;20045;-86
2023/07/11 06:45:25;;;;;;;6.45;3.72;;;19.40;99.90;;;;;;5010371;28;20445;-86
2023/07/11 06:47:51;;;;;;;10.45;3.88;;;19.50;99.90;;;;;;5029547;28;20048;-86
2023/07/11 06:50:17;;;;;;;5.07;3.40;;;19.50;99.90;;;;;;5029859;28;20049;-84
2023/07/11 06:52:43;;;;;;;10.40;4.38;;;19.60;99.90;;;;;;5036458;28;20313;-85
2023/07/11 06:55:10;;;;;;;10.00;3.80;;;19.70;99.90;;;;;;5020617;28;20053;-85
2023/07/11 06:57:36;;;;;;;7.07;3.85;;;19.80;99.90;;;;;;5013433;28;20041;-85
2023/07/11 07:00:02;;;;;;;11.48;4.30;;;19.80;99.90;;;;;;5008780;28;20497;-86
2023/07/11 07:02:28;;;;;;;9.63;4.28;;;19.80;99.90;;;;;;5026037;28;20049;-85
2023/07/11 07:04:55;;;;;;;8.50;3.75;;;19.90;99.90;;;;;;5030626;28;20095;-83
2023/07/11 07:07:21;;;;;;;7.82;3.50;;;19.90;99.90;;;;;;5029418;28;20049;-85
2023/07/11 07:09:46;;;;;;;9.07;3.50;;;20.00;99.90;;;;;;5029104;28;20044;-84
2023/07/11 07:12:12;;;;;;;8.82;3.92;;;20.10;99.90;;;;;;5030318;28;20041;-85
2023/07/11 07:14:39;;;;;;;7.53;4.00;;;20.20;99.90;;;;;;5029779;28;20093;-83
2023/07/11 07:17:04;;;;;;;6.57;3.70;;;20.20;99.90;;;;;;5021437;28;20072;-82
2023/07/11 07:19:30;;;;;;;7.25;3.67;;;20.30;99.90;;;;;;5029411;28;20073;-82
2023/07/11 07:21:56;;;;;;;6.47;3.00;;;20.40;99.90;;;;;;5029388;28;20045;-81
2023/07/11 07:24:21;;;;;;;6.78;3.55;;;20.40;99.90;;;;;;5028693;28;20025;-82
2023/07/11 07:26:47;;;;;;;6.43;3.72;;;20.50;99.90;;;;;;5029961;28;20517;-82
2023/07/11 07:29:12;;;;;;;7.68;3.40;;;20.60;99.90;;;;;;5029719;28;20504;-81
2023/07/11 07:31:38;;;;;;;9.00;3.50;;;20.60;99.90;;;;;;5029377;28;20041;-82
2023/07/11 07:34:04;;;;;;;7.68;2.85;;;20.70;99.90;;;;;;5029244;28;20397;-82
2023/07/11 07:36:29;;;;;;;6.00;3.83;;;20.80;99.90;;;;;;5008116;28;20824;-82
2023/07/11 07:38:55;;;;;;;7.25;3.08;;;20.80;99.90;;;;;;5010744;28;20117;-82
2023/07/11 07:41:20;;;;;;;8.38;3.50;;;20.80;99.90;;;;;;5029126;28;20511;-82
2023/07/11 07:43:46;;;;;;;8.95;3.13;;;20.90;99.90;;;;;;5010436;28;20055;-82
2023/07/11 07:46:15;;;;;;;6.38;3.10;;;20.90;99.90;;;;;;5028898;28;20048;-82
2023/07/11 07:48:41;;;;;;;7.85;3.22;;;21.00;99.90;;;;;;5030107;28;20072;-83
2023/07/11 07:51:10;;;;;;;4.97;3.50;;;21.00;99.90;;;;;;5027921;28;20526;-82
2023/07/11 07:53:36;;;;;;;8.20;2.85;;;21.10;99.90;;;;;;5011392;28;20045;-82
2023/07/11 07:56:11;;;;;;;7.60;3.30;;;21.10;99.90;;;;;;5029131;28;20053;-82
2023/07/11 07:58:38;;;;;;;6.45;2.80;;;21.10;99.90;;;;;;5007127;28;20070;-83
2023/07/11 08:01:04;;;;;;;4.82;2.58;;;21.20;99.90;;;;;;5027342;28;20049;-82
2023/07/11 08:03:30;;;;;;;7.05;2.90;;;21.20;99.90;;;;;;5028462;28;20125;-82
2023/07/11 08:05:57;;;;;;;5.28;2.70;;;21.30;99.90;;;;;;5028113;28;20034;-81
2023/07/11 08:08:23;;;;;;;8.45;3.28;;;21.30;99.90;;;;;;5029971;28;20029;-82
2023/07/11 08:10:48;;;;;;;11.85;7.68;;;21.40;99.90;;;;;;5008962;28;20049;-82
2023/07/11 08:13:14;;;;;;;6.88;3.30;;;21.40;99.90;;;;;;5028646;28;20492;-82
2023/07/11 08:15:42;;;;;;;11.00;2.80;;;21.50;99.90;;;;;;5029531;28;20380;-82
2023/07/11 08:18:10;;;;;;;7.82;3.00;;;21.60;99.90;;;;;;5029604;28;20037;-82
2023/07/11 08:20:36;;;;;;;7.32;2.70;;;21.60;99.90;;;;;;5028721;28;20112;-82
2023/07/11 08:23:02;;;;;;;6.40;3.25;;;21.60;99.90;;;;;;5029030;28;20529;-82
2023/07/11 08:25:28;;;;;;;4.47;2.45;;;21.70;99.90;;;;;;5029856;28;20037;-83
2023/07/11 08:27:53;;;;;;;5.40;2.50;;;21.70;99.90;;;;;;5029281;28;20440;-82
2023/07/11 08:30:20;;;;;;;4.80;2.38;;;21.70;99.90;;;;;;5035340;28;20049;-82
2023/07/11 08:32:46;;;;;;;5.35;2.63;;;21.70;99.90;;;;;;5037616;28;20037;-81
2023/07/11 08:35:11;;;;;;;5.45;2.13;;;21.80;99.90;;;;;;5029019;28;20060;-83
2023/07/11 08:37:37;;;;;;;9.57;2.47;;;21.90;99.90;;;;;;5029980;28;20037;-83
2023/07/11 08:40:04;;;;;;;4.35;2.58;;;21.90;99.90;;;;;;5027787;28;20041;-82
2023/07/11 08:42:35;;;;;;;5.30;2.20;;;21.90;99.90;;;;;;5029755;28;20073;-83
2023/07/11 08:45:30;;;;;;;6.80;2.30;;;22.00;99.90;;;;;;5029206;28;20056;-83
2023/07/11 08:48:15;;;;;;;8.45;3.58;;;22.00;99.90;;;;;;4998610;28;20502;-82
2023/07/11 08:51:01;;;;;;;5.68;1.95;;;22.10;99.90;;;;;;5028544;28;20497;-83
2023/07/11 08:53:33;;;;;;;4.60;1.85;;;22.30;99.90;;;;;;4982056;28;20343;-82
2023/07/11 08:56:16;;;;;;;8.27;2.20;;;22.30;99.90;;;;;;5030423;28;20053;-81
2023/07/11 08:58:43;;;;;;;6.82;2.58;;;22.40;99.90;;;;;;5032116;28;20172;-83
2023/07/11 09:01:37;;;;;;;10.43;4.65;;;22.60;99.90;;;;;;5012242;28;20053;-82
2023/07/11 09:04:04;;;;;;;6.25;2.40;;;22.70;99.90;;;;;;4997589;28;20454;-83
2023/07/11 09:06:38;;;;;;;4.55;2.03;;;22.80;99.90;;;;;;5031516;28;20041;-81
2023/07/11 09:09:04;;;;;;;6.60;2.40;;;22.90;99.90;;;;;;5030726;28;20500;-83
2023/07/11 09:11:52;;;;;;;7.22;1.80;;;23.00;99.90;;;;;;5031910;28;20481;-82
2023/07/11 09:14:40;;;;;;;7.20;2.25;;;23.10;99.90;;;;;;5014431;28;20034;-82
2023/07/11 09:17:20;;;;;;;5.25;2.38;;;23.10;99.90;;;;;;5032356;28;20056;-83
2023/07/11 09:19:57;;;;;;;6.90;2.20;;;23.20;99.90;;;;;;5030895;28;20050;-82
2023/07/11 09:22:41;;;;;;;6.40;2.35;;;23.30;99.90;;;;;;5023663;28;20049;-82
2023/07/11 09:25:18;;;;;;;7.65;2.10;;;23.40;99.90;;;;;;5009133;28;20061;-82
2023/07/11 09:27:51;;;;;;;7.43;2.50;;;23.50;99.90;;;;;;5030468;28;20091;-81
2023/07/11 09:30:54;;;;;;;5.38;2.08;;;23.60;99.90;;;;;;5030960;28;20033;-81
2023/07/11 09:33:30;;;;;;;3.30;1.60;;;23.70;99.90;;;;;;5026081;28;20076;-83
2023/07/11 09:35:58;;;;;;;6.72;1.70;;;23.80;99.90;;;;;;5030759;28;20397;-83
2023/07/11 09:38:44;;;;;;;5.47;1.95;;;23.80;99.90;;;;;;5024170;28;20371;-81
2023/07/11 09:41:32;;;;;;;5.85;1.50;;;23.90;99.90;;;;;;5025812;28;20451;-81
2023/07/11 09:43:58;;;;;;;7.28;1.92;;;24.00;99.90;;;;;;4993058;28;20041;-82
2023/07/11 09:46:25;;;;;;;6.63;2.00;;;24.10;99.90;;;;;;5027542;28;20044;-81
2023/07/11 09:48:56;;;;;;;4.47;1.70;;;24.20;99.90;;;;;;5024014;28;20030;-82
2023/07/11 09:51:30;;;;;;;11.70;2.15;;;24.20;99.90;;;;;;5012163;28;20049;-81
2023/07/11 09:53:56;;;;;;;5.47;1.95;;;24.30;99.90;;;;;;5032525;28;20238;-82
2023/07/11 09:56:23;;;;;;;5.00;1.63;;;24.40;99.90;;;;;;5023024;28;20107;-81
2023/07/11 09:58:57;;;;;;;8.32;1.60;;;24.40;99.90;;;;;;5027332;28;20037;-82
2023/07/11 10:01:24;;;;;;;7.20;2.05;;;24.40;99.90;;;;;;5029755;28;20049;-83
2023/07/11 10:03:53;;;;;;;7.75;2.10;;;24.50;99.90;;;;;;5031216;28;20037;-82
2023/07/11 10:06:42;;;;;;;4.55;1.63;;;24.60;99.90;;;;;;5033512;28;20048;-81
2023/07/11 10:09:14;;;;;;;6.53;2.45;;;24.70;99.90;;;;;;5038759;28;20045;-82
2023/07/11 10:11:40;;;;;;;7.70;2.75;;;24.70;99.90;;;;;;5027016;28;20497;-82
2023/07/11 10:14:17;;;;;;;6.43;1.98;;;24.70;99.90;;;;;;5028782;28;20033;-82
2023/07/11 10:16:44;;;;;;;7.22;1.67;;;24.80;99.90;;;;;;5005799;28;20048;-80
2023/07/11 10:19:17;;;;;;;6.85;2.08;;;24.80;99.90;;;;;;5027021;28;20182;-81
2023/07/11 10:21:50;;;;;;;5.78;1.83;;;24.80;99.90;;;;;;5030859;28;20064;-79
2023/07/11 10:24:19;;;;;;;4.07;1.55;;;24.80;99.90;;;;;;5028300;28;20072;-81
2023/07/11 10:26:48;;;;;;;7.50;2.08;;;24.80;99.90;;;;;;5006571;28;20489;-80
2023/07/11 10:29:18;;;;;;;4.95;1.65;;;25.00;99.90;;;;;;5024503;28;20067;-81
2023/07/11 10:31:53;;;;;;;8.18;2.13;;;25.00;99.90;;;;;;5025143;28;20619;-81
2023/07/11 10:34:42;;;;;;;9.57;1.80;;;25.00;99.90;;;;;;5030110;28;20057;-80
2023/07/11 10:37:18;;;;;;;5.85;1.63;;;25.00;99.90;;;;;;5026541;28;20382;-81
2023/07/11 10:39:51;;;;;;;8.20;2.03;;;25.00;99.90;;;;;;5025884;28;20041;-81
2023/07/11 10:42:45;;;;;;;2.75;1.75;;;25.20;99.90;;;;;;5027538;28;20050;-81
2023/07/11 10:45:19;;;;;;;5.43;2.38;;;25.30;99.90;;;;;;4980608;28;20056;-81
2023/07/11 10:47:51;;;;;;;;;;;25.30;99.90;;;;;;5030600;28;20068;-82
2023/07/11 10:50:27;;;;;;;7.13;2.20;;;25.30;99.90;;;;;;5011928;28;19921;-83
2023/07/11 10:52:55;;;;;;;9.32;2.53;;;25.30;99.90;;;;;;5029025;28;20448;-83
2023/07/11 10:55:27;;;;;;;10.63;2.08;;;25.30;99.70;;;;;;5027189;28;20409;-83
2023/07/11 10:57:54;;;;;;;7.05;2.17;;;25.30;99.90;;;;;;5026528;28;20041;-83
2023/07/11 11:00:51;;;;;;;3.72;1.70;;;25.30;99.90;;;;;;5028793;28;20030;-80
2023/07/11 11:03:43;;;;;;;5.03;2.20;;;25.40;99.90;;;;;;5019164;28;20091;-81
2023/07/11 11:06:49;;;;;;;8.90;2.38;;;25.50;99.90;;;;;;5027252;28;20053;-83
2023/07/11 11:09:21;;;;;;;7.85;2.35;;;25.50;99.60;;;;;;5023051;28;20041;-82
2023/07/11 11:12:04;;;;;;;4.40;2.15;;;25.20;99.90;;;;;;5023130;28;20072;-82
2023/07/11 11:14:44;;;;;;;8.07;2.30;;;25.50;99.70;;;;;;5028464;28;20441;-82
2023/07/11 11:17:45;;;;;;;6.60;2.60;;;25.60;99.90;;;;;;5028697;28;20077;-83
2023/07/11 11:20:25;;;;;;;4.13;1.75;;;25.60;99.90;;;;;;4979555;28;20049;-83
2023/07/11 11:23:30;;;;;;;5.88;2.17;;;25.70;99.70;;;;;;5029361;28;20053;-82
2023/07/11 11:26:29;;;;;;;6.10;2.00;;;25.90;99.40;;;;;;4941777;28;20058;-82
2023/07/11 11:29:04;;;;;;;7.53;2.15;;;26.10;99.10;;;;;;5020381;28;20041;-83
2023/07/11 11:31:36;;;;;;;11.07;2.22;;;26.20;99.60;;;;;;5009066;28;20044;-82
2023/07/11 11:34:36;;;;;;;5.80;2.83;;;26.20;99.20;;;;;;5024747;28;20107;-82
2023/07/11 11:37:40;;;;;;;9.75;2.50;;;26.20;99.70;;;;;;5005844;28;20381;-83
2023/07/11 11:40:20;;;;;;;4.57;2.05;;;26.40;99.60;;;;;;5031221;28;20049;-81
2023/07/11 11:42:51;;;;;;;6.15;2.10;;;26.40;99.90;;;;;;5026873;28;20393;-81
2023/07/11 11:45:21;;;;;;;6.68;2.28;;;26.50;99.90;;;;;;5034540;28;20037;-80
2023/07/11 11:47:49;;;;;;;7.28;2.13;;;26.50;99.20;;;;;;5008433;28;20045;-81
2023/07/11 11:50:18;;;;;;;7.68;2.42;;;26.40;99.00;;;;;;5023132;28;20045;-82
2023/07/11 11:52:44;;;;;;;8.10;2.47;;;26.40;98.70;;;;;;5009179;28;20096;-84
2023/07/11 11:55:37;;;;;;;5.97;2.35;;;26.40;98.90;;;;;;5022647;28;20057;-81
2023/07/11 11:58:04;;;;;;;6.97;2.00;;;26.40;99.30;;;;;;5019925;28;20057;-82
2023/07/11 12:00:45;;;;;;;6.40;2.15;;;26.70;99.40;;;;;;5022425;28;20042;-81
2023/07/11 12:03:38;;;;;;;5.10;2.08;;;26.70;99.70;;;;;;5024005;28;20134;-83
2023/07/11 12:06:43;;;;;;;3.92;2.00;;;26.90;97.90;;;;;;5018368;28;20521;-81
2023/07/11 12:09:18;;;;;;;6.75;3.08;;;27.00;97.90;;;;;;4899592;29;20055;-81
2023/07/11 12:12:06;;;;;;;7.07;2.40;;;27.00;97.70;;;;;;5012101;28;20053;-81
2023/07/11 12:14:38;;;;;;;7.97;2.22;;;27.00;98.60;;;;;;5029387;28;20145;-81
2023/07/11 12:17:05;;;;;;;4.28;2.35;;;27.00;98.40;;;;;;5028284;28;20049;-81
2023/07/11 12:20:13;;;;;;;5.00;2.38;;;27.10;98.30;;;;;;5026374;28;20430;-81
2023/07/11 12:22:39;;;;;;;9.23;2.60;;;27.00;97.70;;;;;;4992354;28;20061;-81
2023/07/11 12:25:16;;;;;;;6.45;2.53;;;26.90;97.50;;;;;;5009490;28;20046;-81
2023/07/11 12:27:42;;;;;;;7.88;3.03;;;26.90;98.00;;;;;;5029218;28;20048;-82
2023/07/11 12:30:14;;;;;;;7.40;2.58;;;26.80;98.20;;;;;;5030423;28;20053;-82
2023/07/11 12:32:49;;;;;;;14.68;2.83;;;26.70;98.20;;;;;;5013799;28;20044;-82
2023/07/11 12:35:16;;;;;;;12.18;2.95;;;26.70;99.00;;;;;;5030575;28;20140;-81
2023/07/11 12:37:54;;;;;;;4.65;2.20;;;26.70;98.80;;;;;;5031484;28;20049;-82
2023/07/11 12:40:29;;;;;;;6.85;2.50;;;26.70;98.60;;;;;;5010655;28;20537;-81
2023/07/11 12:42:58;;;;;;;4.90;2.22;;;26.70;98.10;;;;;;5024428;28;20117;-82
2023/07/11 12:45:37;;;;;;;6.22;2.50;;;26.70;97.90;;;;;;5014264;28;20052;-82
2023/07/11 12:48:03;;;;;;;5.68;2.22;;;26.60;98.60;;;;;;5024569;28;20045;-83
2023/07/11 12:50:41;;;;;;;5.65;2.70;;;26.60;98.70;;;;;;5010518;28;20061;-83
2023/07/11 12:53:07;;;;;;;8.18;3.05;;;26.70;98.80;;;;;;5008907;28;20046;-82
2023/07/11 12:55:32;;;;;;;9.95;2.45;;;26.70;98.50;;;;;;5032221;28;20030;-84
2023/07/11 12:57:58;;;;;;;6.45;2.97;;;26.60;98.20;;;;;;5012643;28;20603;-82
2023/07/11 13:00:29;;;;;;;7.03;2.65;;;26.70;98.50;;;;;;5011808;28;20037;-82